Time;durP1;ratioP1;P1;durP2;ratioP2;P2;SDS_P1;SDS_P2;PMS_P1;PMS_P2;Temp;Humidity;BMP_temperature;BMP_pressure;BME280_temperature;BME280_humidity;BME280_pressure;Samples;Min_cycle;Max_cycle;Signal;HPM_P1;HPM_P2
2022/11/03 00:02:01;;;;;;;0.60;0.10;;;10.90;1.00;;;;;;4916429;29;20507;-71
2022/11/03 00:04:29;;;;;;;0.60;0.10;;;10.90;1.00;;;;;;4906415;29;20441;-72
2022/11/03 00:06:58;;;;;;;0.60;0.10;;;10.90;1.00;;;;;;4917007;29;20460;-72
2022/11/03 00:09:26;;;;;;;0.60;0.10;;;10.90;1.00;;;;;;4916603;29;20445;-72
2022/11/03 00:11:54;;;;;;;0.60;0.10;;;10.90;1.00;;;;;;4916199;29;20504;-72
2022/11/03 00:14:22;;;;;;;0.60;0.10;;;10.90;1.00;;;;;;4916159;29;20457;-73
2022/11/03 00:16:50;;;;;;;0.60;0.10;;;10.80;1.00;;;;;;4915727;29;20524;-71
2022/11/03 00:19:18;;;;;;;0.60;0.10;;;10.80;1.00;;;;;;4916386;29;21033;-72
2022/11/03 00:21:46;;;;;;;0.60;0.10;;;10.80;1.00;;;;;;4916362;29;20452;-73
2022/11/03 00:24:15;;;;;;;0.60;0.10;;;10.80;1.00;;;;;;4916266;29;20512;-71
2022/11/03 00:26:43;;;;;;;0.70;0.40;;;10.90;1.00;;;;;;4916238;29;20470;-73
2022/11/03 00:29:13;;;;;;;0.60;0.10;;;10.90;1.00;;;;;;4916135;29;20448;-71
2022/11/03 00:31:43;;;;;;;0.60;0.13;;;10.90;1.00;;;;;;4897104;29;21004;-71
2022/11/03 00:34:12;;;;;;;0.60;0.10;;;10.90;1.00;;;;;;4897372;29;20462;-70
2022/11/03 00:36:41;;;;;;;0.60;0.10;;;10.90;1.00;;;;;;4897935;29;20571;-72
2022/11/03 00:39:10;;;;;;;0.60;0.10;;;10.90;1.00;;;;;;4897830;29;20992;-71
2022/11/03 00:41:39;;;;;;;0.60;0.20;;;10.90;1.00;;;;;;4897600;29;21004;-72
2022/11/03 00:44:09;;;;;;;0.60;0.10;;;10.90;1.00;;;;;;4900697;29;20449;-72
2022/11/03 00:46:37;;;;;;;0.60;0.10;;;10.80;1.00;;;;;;4916591;29;20471;-71
2022/11/03 00:49:05;;;;;;;0.60;0.10;;;10.80;1.00;;;;;;4918412;29;20484;-72
2022/11/03 00:51:34;;;;;;;0.60;0.10;;;10.80;1.00;;;;;;4903391;29;20445;-73
2022/11/03 00:54:04;;;;;;;0.60;0.10;;;10.70;1.00;;;;;;4900962;29;20933;-72
2022/11/03 00:56:34;;;;;;;0.60;0.10;;;10.70;1.00;;;;;;4900410;29;20490;-71
2022/11/03 00:59:04;;;;;;;0.60;0.10;;;10.70;1.00;;;;;;4907603;29;20456;-72
2022/11/03 05:02:56;;;;;;;0.57;0.10;;;9.50;1.00;;;;;;4932436;29;20602;-74
2022/11/03 05:05:26;;;;;;;0.50;0.10;;;9.40;1.00;;;;;;4934678;29;20452;-74
2022/11/03 05:07:56;;;;;;;0.50;0.10;;;9.40;1.00;;;;;;4934669;29;20503;-75
2022/11/03 05:10:26;;;;;;;0.50;0.10;;;9.30;1.00;;;;;;4935282;29;20440;-75
2022/11/03 05:12:55;;;;;;;0.50;0.10;;;9.30;1.00;;;;;;4915772;29;20464;-76
2022/11/03 05:15:29;;;;;;;0.50;0.10;;;9.40;1.00;;;;;;4916438;29;20500;-75
2022/11/03 05:18:00;;;;;;;0.50;0.10;;;9.40;1.00;;;;;;4949994;23;20546;-72
2022/11/03 05:20:34;;;;;;;0.60;0.10;;;9.40;1.00;;;;;;4953395;29;20471;-72
2022/11/03 05:23:04;;;;;;;0.50;0.10;;;9.30;1.00;;;;;;4952789;29;20518;-72
2022/11/03 05:25:38;;;;;;;0.50;0.10;;;9.30;1.00;;;;;;4953245;29;20503;-72
2022/11/03 05:28:20;;;;;;;0.50;0.10;;;9.30;1.00;;;;;;4966729;28;20493;-74
2022/11/03 05:30:50;;;;;;;0.50;0.10;;;9.20;1.00;;;;;;4971976;28;20809;-73
2022/11/03 05:33:25;;;;;;;0.50;0.10;;;9.30;1.00;;;;;;4971944;28;21196;-72
2022/11/03 05:35:53;;;;;;;0.50;0.10;;;9.30;1.00;;;;;;4974876;28;20461;-73
2022/11/03 05:38:22;;;;;;;0.53;0.10;;;9.30;1.00;;;;;;4975942;28;20514;-74
2022/11/03 05:40:52;;;;;;;0.50;0.20;;;9.30;1.00;;;;;;4975907;28;20985;-74
2022/11/03 05:43:21;;;;;;;0.50;0.10;;;9.20;1.00;;;;;;4972492;28;20521;-74
2022/11/03 05:45:50;;;;;;;0.50;0.10;;;9.20;1.00;;;;;;4974783;28;20493;-72
2022/11/03 05:48:27;;;;;;;0.50;0.10;;;9.20;1.00;;;;;;4971320;28;20481;-74
2022/11/03 05:50:59;;;;;;;0.50;0.10;;;9.20;1.00;;;;;;4974284;28;20976;-71
2022/11/03 05:53:29;;;;;;;0.50;0.10;;;9.20;1.00;;;;;;4967038;28;20497;-72
2022/11/03 05:56:00;;;;;;;0.50;0.10;;;9.10;1.00;;;;;;4976000;28;20505;-71
2022/11/03 05:58:31;;;;;;;0.50;0.10;;;9.10;1.00;;;;;;4975650;28;20509;-72
2022/11/03 06:01:03;;;;;;;4.07;0.87;;;9.10;1.00;;;;;;4976483;28;20457;-72
2022/11/03 06:03:36;;;;;;;0.50;0.10;;;9.10;1.00;;;;;;4975640;28;20478;-73
2022/11/03 06:06:14;;;;;;;0.60;0.50;;;9.10;1.00;;;;;;4976266;28;20485;-74
2022/11/03 06:08:42;;;;;;;0.50;0.10;;;9.00;1.00;;;;;;4975420;28;20587;-73
2022/11/03 06:11:21;;;;;;;0.50;0.10;;;9.10;1.00;;;;;;4973828;28;20562;-73
2022/11/03 06:13:48;;;;;;;0.50;0.30;;;9.10;1.00;;;;;;4975261;28;20460;-73
2022/11/03 06:16:25;;;;;;;0.50;0.10;;;;;;;;;;4974952;28;20446;-72
2022/11/03 06:18:54;;;;;;;0.50;0.10;;;9.10;1.00;;;;;;4959673;28;20800;-72
2022/11/03 06:21:25;;;;;;;0.87;0.40;;;9.10;1.00;;;;;;4975053;28;20446;-73
2022/11/03 06:23:54;;;;;;;0.50;0.10;;;9.10;1.00;;;;;;4975119;28;20505;-73
2022/11/03 06:26:25;;;;;;;0.50;0.10;;;;;;;;;;4975524;28;20446;-73
2022/11/03 06:28:53;;;;;;;0.50;0.10;;;9.10;1.00;;;;;;4960132;28;20929;-72
2022/11/03 06:31:24;;;;;;;0.50;0.10;;;9.10;1.00;;;;;;4971662;28;20475;-72
2022/11/03 06:33:55;;;;;;;0.50;0.10;;;9.10;1.00;;;;;;4972383;28;20593;-74
2022/11/03 06:36:25;;;;;;;0.50;0.10;;;9.10;1.00;;;;;;4974746;28;20925;-73
2022/11/03 06:38:55;;;;;;;0.50;0.10;;;9.10;1.00;;;;;;4974812;28;21010;-74
2022/11/03 06:41:25;;;;;;;0.50;0.20;;;9.10;1.00;;;;;;4974741;28;20825;-72
2022/11/03 06:43:53;;;;;;;0.50;0.10;;;9.20;1.00;;;;;;4974876;28;20837;-72
2022/11/03 06:46:23;;;;;;;0.50;0.10;;;9.20;1.00;;;;;;4974288;28;20482;-72
2022/11/03 06:48:55;;;;;;;0.50;0.10;;;9.10;1.00;;;;;;4974740;28;20451;-73
2022/11/03 06:51:25;;;;;;;0.50;0.10;;;9.20;1.00;;;;;;4973811;28;20983;-72
2022/11/03 06:53:57;;;;;;;0.50;0.10;;;9.20;1.00;;;;;;4969124;28;20450;-72
2022/11/03 06:56:28;;;;;;;0.50;0.10;;;9.20;1.00;;;;;;4968785;28;20434;-73
2022/11/03 06:58:57;;;;;;;0.50;0.10;;;9.20;1.00;;;;;;4974241;28;20482;-72
2022/11/03 07:01:29;;;;;;;0.50;0.10;;;9.20;1.00;;;;;;4974303;28;20446;-73
2022/11/03 07:04:01;;;;;;;0.50;0.20;;;9.20;1.00;;;;;;4974192;28;20457;-72
2022/11/03 07:06:31;;;;;;;0.50;0.10;;;9.30;1.00;;;;;;4974149;28;20908;-76
2022/11/03 07:09:01;;;;;;;0.50;0.10;;;9.30;1.00;;;;;;4955309;29;20510;-75
2022/11/03 07:11:31;;;;;;;0.50;0.10;;;9.40;1.00;;;;;;4959773;28;20443;-72
2022/11/03 07:14:09;;;;;;;0.50;0.10;;;9.40;1.00;;;;;;4970488;28;20584;-74
2022/11/03 07:16:40;;;;;;;0.50;0.10;;;9.50;1.00;;;;;;4973676;28;20509;-74
2022/11/03 07:19:18;;;;;;;0.50;0.10;;;9.50;1.00;;;;;;4955247;29;20557;-74
2022/11/03 07:21:49;;;;;;;0.50;0.10;;;9.50;1.00;;;;;;4955133;29;20443;-73
2022/11/03 07:24:21;;;;;;;0.60;0.10;;;9.50;1.00;;;;;;4954829;29;20520;-74
2022/11/03 07:26:49;;;;;;;0.50;0.10;;;9.60;1.00;;;;;;4956384;28;20471;-73
2022/11/03 07:29:22;;;;;;;0.50;0.10;;;9.60;1.00;;;;;;4974389;28;20450;-74
2022/11/03 07:31:52;;;;;;;0.50;0.10;;;9.70;1.00;;;;;;4973761;28;20473;-73
2022/11/03 07:34:28;;;;;;;0.50;0.10;;;9.70;1.00;;;;;;4973401;28;20442;-76
2022/11/03 07:36:57;;;;;;;0.50;0.10;;;9.70;1.00;;;;;;4971008;28;20502;-72
2022/11/03 07:39:33;;;;;;;0.50;0.10;;;9.70;1.00;;;;;;4954499;28;21024;-72
2022/11/03 07:42:03;;;;;;;0.50;0.10;;;;;;;;;;4954353;29;20945;-73
2022/11/03 07:44:30;;;;;;;0.50;0.10;;;9.80;1.00;;;;;;4954356;29;20498;-73
2022/11/03 07:46:58;;;;;;;0.50;0.10;;;9.80;1.00;;;;;;4956074;28;20510;-72
2022/11/03 07:49:29;;;;;;;0.50;0.10;;;9.80;1.00;;;;;;4973209;28;20446;-71
2022/11/03 07:51:59;;;;;;;0.50;0.10;;;9.70;1.00;;;;;;4973385;28;20533;-77
2022/11/03 07:54:30;;;;;;;0.83;0.60;;;9.70;1.00;;;;;;4973156;28;20446;-73
2022/11/03 07:57:00;;;;;;;0.50;0.10;;;9.70;1.00;;;;;;4970785;28;20883;-72
2022/11/03 07:59:32;;;;;;;0.60;0.10;;;9.70;1.00;;;;;;4957490;28;20477;-73
2022/11/03 08:02:01;;;;;;;0.90;0.87;;;8.70;1.00;;;;;;4968768;28;21201;-72
2022/11/03 08:04:34;;;;;;;0.50;0.10;;;9.80;1.00;;;;;;4969738;28;20493;-72
2022/11/03 08:07:01;;;;;;;0.50;0.10;;;9.90;1.00;;;;;;4972195;28;20497;-72
2022/11/03 08:09:29;;;;;;;0.50;0.10;;;9.90;1.00;;;;;;4972176;28;20455;-73
2022/11/03 08:11:57;;;;;;;0.50;0.10;;;10.00;1.00;;;;;;4962386;28;20950;-72
2022/11/03 08:14:26;;;;;;;0.50;0.10;;;10.10;1.00;;;;;;4963082;28;20504;-73
2022/11/03 08:16:54;;;;;;;0.50;0.10;;;10.20;1.00;;;;;;4962682;28;20490;-74
2022/11/03 08:19:21;;;;;;;0.60;0.10;;;10.20;1.00;;;;;;4956970;28;20521;-72
2022/11/03 08:21:50;;;;;;;0.50;0.10;;;10.20;1.00;;;;;;4973618;28;20809;-73
2022/11/03 08:24:18;;;;;;;0.60;0.10;;;10.30;1.00;;;;;;4972757;28;20446;-73
2022/11/03 08:26:46;;;;;;;0.60;0.10;;;10.40;1.00;;;;;;4972981;28;20474;-74
2022/11/03 08:29:16;;;;;;;0.50;0.20;;;10.40;1.00;;;;;;4972672;28;20949;-74
2022/11/03 08:31:44;;;;;;;0.60;0.10;;;10.40;1.00;;;;;;4972927;28;20808;-73
2022/11/03 08:34:12;;;;;;;0.60;0.30;;;10.40;1.00;;;;;;4972131;28;20450;-72
2022/11/03 08:36:39;;;;;;;0.53;0.10;;;10.50;1.00;;;;;;4972695;28;20454;-74
2022/11/03 08:39:08;;;;;;;0.60;0.10;;;10.50;1.00;;;;;;4956649;28;20478;-73
2022/11/03 08:41:36;;;;;;;0.60;0.17;;;10.50;1.00;;;;;;4971322;28;20446;-73
2022/11/03 08:44:04;;;;;;;0.60;0.10;;;10.60;1.00;;;;;;4972226;28;20808;-73
2022/11/03 08:46:32;;;;;;;0.60;0.10;;;10.60;1.00;;;;;;4979751;28;20499;-74
2022/11/03 08:49:00;;;;;;;0.50;0.10;;;10.60;1.00;;;;;;4976641;28;20462;-74
2022/11/03 08:51:28;;;;;;;0.60;0.10;;;10.70;1.00;;;;;;4984312;28;20469;-75
2022/11/03 08:53:55;;;;;;;0.60;0.10;;;10.70;1.00;;;;;;4988218;28;20450;-73
2022/11/03 08:56:24;;;;;;;0.60;0.10;;;10.90;1.00;;;;;;4970903;28;20509;-73
2022/11/03 08:58:52;;;;;;;0.60;0.10;;;10.90;1.00;;;;;;4985390;28;20476;-73
2022/11/03 09:01:20;;;;;;;0.60;0.10;;;11.00;1.00;;;;;;4980423;28;20824;-74
2022/11/03 09:03:48;;;;;;;0.60;0.10;;;11.10;1.00;;;;;;4971869;28;20533;-73
2022/11/03 09:06:16;;;;;;;0.60;0.10;;;11.10;1.00;;;;;;4983331;28;20458;-74
2022/11/03 09:08:45;;;;;;;0.60;0.10;;;11.20;1.00;;;;;;4976022;28;20888;-73
2022/11/03 09:11:34;;;;;;;0.60;0.10;;;11.20;1.00;;;;;;4970577;28;20995;-73
2022/11/03 09:14:02;;;;;;;0.60;0.10;;;;;;;;;;4974166;28;20485;-73
2022/11/03 09:16:30;;;;;;;0.60;0.10;;;11.40;1.00;;;;;;4971275;28;20442;-73
2022/11/03 09:18:58;;;;;;;0.60;0.10;;;;;;;;;;4972598;28;20528;-72
2022/11/03 09:21:26;;;;;;;0.60;0.10;;;11.50;1.00;;;;;;4964955;28;20489;-73
2022/11/03 09:23:54;;;;;;;0.60;0.10;;;;;;;;;;4964434;28;20446;-72
2022/11/03 09:26:22;;;;;;;0.60;0.10;;;11.60;1.00;;;;;;4969794;28;20940;-72
2022/11/03 09:28:51;;;;;;;0.60;0.10;;;11.60;1.00;;;;;;4973812;28;20470;-72
2022/11/03 09:31:19;;;;;;;0.60;0.10;;;11.70;1.00;;;;;;4980561;28;20484;-73
2022/11/03 09:33:47;;;;;;;0.60;0.10;;;11.70;1.00;;;;;;4987005;28;20960;-73
2022/11/03 09:36:15;;;;;;;0.60;0.10;;;11.80;1.00;;;;;;4995523;28;20967;-71
2022/11/03 09:38:43;;;;;;;0.60;0.10;;;11.80;1.00;;;;;;4981401;28;20576;-71
2022/11/03 09:41:16;;;;;;;0.60;0.10;;;11.90;1.00;;;;;;4976424;28;20455;-73
2022/11/03 09:43:58;;;;;;;0.60;0.10;;;11.90;1.00;;;;;;4977384;28;20442;-73
2022/11/03 09:46:26;;;;;;;0.60;0.10;;;;;;;;;;4977047;28;20453;-73
2022/11/03 09:48:55;;;;;;;0.60;0.10;;;12.20;1.00;;;;;;4976409;28;20446;-73
2022/11/03 09:51:25;;;;;;;0.60;0.10;;;12.30;1.00;;;;;;4967030;28;20467;-72
2022/11/03 09:53:53;;;;;;;0.60;0.10;;;12.30;1.00;;;;;;4964203;28;20510;-72
2022/11/03 09:56:22;;;;;;;0.60;0.13;;;12.30;1.00;;;;;;4957364;29;20482;-72
2022/11/03 09:58:50;;;;;;;0.60;0.10;;;12.40;1.00;;;;;;4970460;28;20492;-72
2022/11/03 10:01:23;;;;;;;0.60;0.10;;;12.40;1.00;;;;;;4991619;28;20496;-72
2022/11/03 10:03:51;;;;;;;0.60;0.10;;;;;;;;;;4994515;28;20477;-71
2022/11/03 10:06:20;;;;;;;0.60;0.13;;;12.50;1.00;;;;;;4995302;28;20449;-71
2022/11/03 10:08:48;;;;;;;0.60;0.10;;;12.50;1.00;;;;;;4976796;28;20503;-72
2022/11/03 10:11:16;;;;;;;0.60;0.10;;;12.50;1.00;;;;;;4960666;28;20455;-72
2022/11/03 10:13:47;;;;;;;0.60;0.20;;;12.60;1.00;;;;;;4974003;28;21023;-71
2022/11/03 10:16:19;;;;;;;0.60;0.10;;;12.60;1.00;;;;;;4963963;28;20447;-73
2022/11/03 10:18:51;;;;;;;0.60;0.10;;;;;;;;;;4973080;28;20479;-73
2022/11/03 10:21:20;;;;;;;0.60;0.10;;;12.70;1.00;;;;;;4974196;28;20438;-73
2022/11/03 10:23:49;;;;;;;0.60;0.10;;;12.80;1.00;;;;;;4962727;28;20479;-72
2022/11/03 10:26:19;;;;;;;0.60;0.10;;;13.00;1.00;;;;;;4973514;28;20454;-73
2022/11/03 10:28:58;;;;;;;0.60;0.10;;;13.00;1.00;;;;;;4974455;28;20497;-75
2022/11/03 10:31:33;;;;;;;0.60;0.10;;;13.10;1.00;;;;;;4976143;28;20505;-73
2022/11/03 10:34:03;;;;;;;0.60;0.10;;;13.10;1.00;;;;;;4977236;28;20446;-74
2022/11/03 10:36:32;;;;;;;0.60;0.10;;;13.30;1.00;;;;;;4973458;28;20937;-73
2022/11/03 10:39:24;;;;;;;0.60;0.10;;;13.30;1.00;;;;;;4974794;28;20466;-73
2022/11/03 10:41:57;;;;;;;0.60;0.27;;;13.40;1.00;;;;;;4977388;28;20839;-74
2022/11/03 10:44:27;;;;;;;0.60;0.10;;;13.40;1.00;;;;;;4976210;28;21008;-75
2022/11/03 10:46:57;;;;;;;0.60;0.10;;;13.50;1.00;;;;;;4977212;28;20498;-74
2022/11/03 10:49:28;;;;;;;0.60;0.10;;;13.50;1.00;;;;;;4976195;28;20507;-74
2022/11/03 10:52:07;;;;;;;0.60;0.10;;;13.60;1.00;;;;;;4974081;28;20553;-73
2022/11/03 10:54:36;;;;;;;0.60;0.10;;;;;;;;;;4975054;28;20530;-74
2022/11/03 10:57:05;;;;;;;0.60;0.10;;;13.80;1.00;;;;;;4976789;28;20949;-73
2022/11/03 10:59:36;;;;;;;0.60;0.10;;;13.80;1.00;;;;;;4976900;28;20485;-74
2022/11/03 11:02:15;;;;;;;0.60;0.10;;;13.80;1.00;;;;;;4975188;28;20453;-74
2022/11/03 11:04:45;;;;;;;0.60;0.10;;;13.80;1.00;;;;;;4975410;28;20446;-73
2022/11/03 11:07:19;;;;;;;0.60;0.10;;;13.90;1.00;;;;;;4973913;28;20580;-73
2022/11/03 11:09:47;;;;;;;0.60;0.10;;;13.90;1.00;;;;;;4969592;28;20517;-75
2022/11/03 11:12:18;;;;;;;0.60;0.10;;;13.80;1.00;;;;;;4974160;28;20485;-74
2022/11/03 11:14:55;;;;;;;0.60;0.10;;;13.80;1.00;;;;;;4975242;28;20439;-73
2022/11/03 11:17:43;;;;;;;0.60;0.10;;;13.80;1.00;;;;;;4973105;28;20469;-73
2022/11/03 11:20:36;;;;;;;0.60;0.10;;;13.80;1.00;;;;;;4968409;28;20478;-74
2022/11/03 11:23:51;;;;;;;0.60;0.10;;;13.80;1.00;;;;;;4983393;28;20458;-74
2022/11/03 11:26:40;;;;;;;0.60;0.10;;;13.80;1.00;;;;;;4955596;29;20447;-74
2022/11/03 11:29:44;;;;;;;0.60;0.10;;;13.80;1.00;;;;;;4958830;28;20500;-74
2022/11/03 11:32:48;;;;;;;0.60;0.10;;;13.90;1.00;;;;;;4971552;28;21015;-74
2022/11/03 11:35:36;;;;;;;0.60;0.10;;;13.90;1.00;;;;;;4978918;28;20446;-74
2022/11/03 11:38:41;;;;;;;0.60;0.10;;;14.00;1.00;;;;;;4992850;28;20468;-73
2022/11/03 11:41:11;;;;;;;0.60;0.10;;;14.10;1.00;;;;;;4956463;28;20544;-73
2022/11/03 11:43:38;;;;;;;0.60;0.10;;;14.10;1.00;;;;;;4971861;28;20446;-74
2022/11/03 11:46:35;;;;;;;0.60;0.10;;;14.10;1.00;;;;;;4970988;28;20450;-73
2022/11/03 11:49:17;;;;;;;0.60;0.10;;;14.20;1.00;;;;;;4979138;28;20473;-74
2022/11/03 11:51:45;;;;;;;0.60;0.13;;;14.20;1.00;;;;;;4976518;28;20454;-73
2022/11/03 11:54:17;;;;;;;0.60;0.10;;;14.20;1.00;;;;;;4965868;28;20477;-73
2022/11/03 11:56:49;;;;;;;0.60;0.10;;;14.20;1.00;;;;;;4958165;28;20546;-74
2022/11/03 11:59:21;;;;;;;0.60;0.10;;;14.20;1.00;;;;;;4970064;28;20799;-74
2022/11/03 12:01:55;;;;;;;0.60;0.10;;;14.20;1.00;;;;;;4974364;28;20781;-74
2022/11/03 12:04:26;;;;;;;0.60;0.10;;;14.20;1.00;;;;;;4974661;28;20537;-72
2022/11/03 12:06:54;;;;;;;0.60;0.10;;;14.20;1.00;;;;;;4973445;28;20538;-72
2022/11/03 12:09:25;;;;;;;0.60;0.10;;;14.20;1.00;;;;;;4972725;28;20516;-76
2022/11/03 12:11:57;;;;;;;0.60;0.10;;;14.20;1.00;;;;;;4959713;28;20487;-76
2022/11/03 12:14:36;;;;;;;0.60;0.10;;;14.20;1.00;;;;;;4973365;28;20926;-73
2022/11/03 12:17:31;;;;;;;0.60;0.10;;;14.20;1.00;;;;;;4973198;28;20489;-73
2022/11/03 12:19:59;;;;;;;0.70;0.33;;;14.20;1.00;;;;;;4926754;28;20935;-73
2022/11/03 12:22:41;;;;;;;0.60;0.10;;;14.20;1.00;;;;;;4969023;28;20669;-74
2022/11/03 12:25:33;;;;;;;0.60;0.10;;;14.20;1.00;;;;;;4964041;28;20442;-73
2022/11/03 12:28:03;;;;;;;0.60;0.10;;;;;;;;;;4967702;28;20885;-74
2022/11/03 12:30:31;;;;;;;0.60;0.20;;;14.30;1.00;;;;;;4953214;29;20961;-73
2022/11/03 12:33:06;;;;;;;0.60;0.10;;;14.20;1.00;;;;;;4971577;28;20445;-73
2022/11/03 12:35:34;;;;;;;0.60;0.10;;;14.30;1.00;;;;;;4966047;28;20460;-73
2022/11/03 12:38:02;;;;;;;0.60;0.10;;;14.30;1.00;;;;;;4973259;28;21040;-73
2022/11/03 12:40:30;;;;;;;0.60;0.10;;;14.30;1.00;;;;;;4973562;28;20478;-73
2022/11/03 12:42:58;;;;;;;0.60;0.10;;;14.20;1.00;;;;;;4964754;28;20454;-74
2022/11/03 12:45:27;;;;;;;0.60;0.10;;;14.20;1.00;;;;;;4978282;28;20960;-74
2022/11/03 12:47:55;;;;;;;0.60;0.10;;;14.20;1.00;;;;;;4979018;28;20524;-73
2022/11/03 12:50:23;;;;;;;0.60;0.10;;;14.20;1.00;;;;;;4979431;28;20442;-73
2022/11/03 12:52:50;;;;;;;0.60;0.10;;;14.20;1.00;;;;;;4979013;28;20450;-73
2022/11/03 12:55:18;;;;;;;0.60;0.10;;;14.20;1.00;;;;;;4966339;28;20498;-72
2022/11/03 12:57:46;;;;;;;0.60;0.10;;;14.30;1.00;;;;;;4960492;28;20471;-73
2022/11/03 13:00:15;;;;;;;0.60;0.10;;;14.30;1.00;;;;;;4978535;28;20501;-72
2022/11/03 13:02:44;;;;;;;0.60;0.10;;;14.30;1.00;;;;;;4978838;28;20442;-75
2022/11/03 13:05:14;;;;;;;0.60;0.10;;;14.30;1.00;;;;;;4978744;28;20966;-75
2022/11/03 13:07:42;;;;;;;0.60;0.10;;;14.30;1.00;;;;;;4963195;28;20566;-74
2022/11/03 13:10:10;;;;;;;0.60;0.10;;;14.40;1.00;;;;;;4979129;28;20507;-74
2022/11/03 13:12:44;;;;;;;0.60;0.10;;;14.40;1.00;;;;;;4978781;28;20453;-74
2022/11/03 13:15:21;;;;;;;0.60;0.10;;;14.40;1.00;;;;;;4978299;28;20442;-73
2022/11/03 13:17:57;;;;;;;0.60;0.10;;;14.40;1.00;;;;;;4975353;28;20482;-74
2022/11/03 13:20:42;;;;;;;0.60;0.10;;;14.40;1.00;;;;;;4969060;28;20485;-72
2022/11/03 13:23:23;;;;;;;0.60;0.10;;;14.40;1.00;;;;;;4978122;28;20590;-71
2022/11/03 13:25:51;;;;;;;0.60;0.10;;;14.40;1.00;;;;;;4977827;28;20481;-73
2022/11/03 13:28:19;;;;;;;0.60;0.10;;;14.40;1.00;;;;;;4973601;28;20498;-73
2022/11/03 13:30:47;;;;;;;0.60;0.10;;;14.40;1.00;;;;;;4975324;28;20442;-74
2022/11/03 13:33:16;;;;;;;0.60;0.10;;;14.40;1.00;;;;;;4971710;28;20477;-72
2022/11/03 13:35:44;;;;;;;0.60;0.10;;;14.40;1.00;;;;;;4978461;28;20479;-72
2022/11/03 13:38:12;;;;;;;0.60;0.10;;;14.40;1.00;;;;;;4973233;28;20528;-73
2022/11/03 13:40:40;;;;;;;1.43;1.33;;;14.40;1.00;;;;;;4978252;28;20552;-73
2022/11/03 13:43:24;;;;;;;0.60;0.10;;;;;;;;;;4969968;28;20652;-74
2022/11/03 13:45:52;;;;;;;0.60;0.10;;;14.40;1.00;;;;;;4978909;28;20445;-74
2022/11/03 13:48:21;;;;;;;0.60;0.10;;;14.40;1.00;;;;;;4978369;28;20466;-73
2022/11/03 13:51:10;;;;;;;0.60;0.10;;;14.40;1.00;;;;;;4978785;28;20800;-74
2022/11/03 13:53:39;;;;;;;0.60;0.10;;;14.40;1.00;;;;;;4976472;28;20963;-72
2022/11/03 13:56:27;;;;;;;0.60;0.10;;;;;;;;;;4963771;28;20449;-72
2022/11/03 13:58:55;;;;;;;0.60;0.10;;;14.30;1.00;;;;;;4956620;29;20458;-72
2022/11/03 14:01:43;;;;;;;0.60;0.10;;;14.30;1.00;;;;;;4956162;28;20832;-73
2022/11/03 14:04:13;;;;;;;0.60;0.10;;;14.30;1.00;;;;;;4955856;28;20459;-74
2022/11/03 14:07:01;;;;;;;0.60;0.13;;;14.30;1.00;;;;;;4962938;28;20463;-74
2022/11/03 14:09:28;;;;;;;0.60;0.10;;;14.30;1.00;;;;;;4960524;28;20490;-74
2022/11/03 14:14:42;;;;;;;0.60;0.10;;;14.20;1.00;;;;;;4968057;28;20450;-72
2022/11/03 14:17:11;;;;;;;0.60;0.10;;;;;;;;;;4974843;28;20478;-69
2022/11/03 14:19:40;;;;;;;0.60;0.10;;;14.20;1.00;;;;;;4970916;28;21003;-72
2022/11/03 14:22:14;;;;;;;0.60;0.10;;;14.20;1.00;;;;;;4964824;28;20524;-72
2022/11/03 14:24:41;;;;;;;0.60;0.10;;;14.10;1.00;;;;;;4974742;28;20892;-73
2022/11/03 14:27:09;;;;;;;0.60;0.10;;;14.10;1.00;;;;;;4973352;28;20524;-73
2022/11/03 14:29:37;;;;;;;0.60;0.10;;;14.10;1.00;;;;;;4976371;28;20492;-72
2022/11/03 14:32:05;;;;;;;0.60;0.10;;;14.10;1.00;;;;;;4968453;28;20450;-72
2022/11/03 14:34:33;;;;;;;0.60;0.10;;;14.10;1.00;;;;;;4974694;28;20541;-73
2022/11/03 14:37:02;;;;;;;0.60;0.10;;;14.20;1.00;;;;;;4974420;28;20517;-73
2022/11/03 14:39:30;;;;;;;0.60;0.10;;;14.20;1.00;;;;;;4974769;28;20449;-74
2022/11/03 14:42:03;;;;;;;0.60;0.10;;;14.20;1.00;;;;;;4968963;28;20509;-74
2022/11/03 14:44:32;;;;;;;0.60;0.10;;;14.20;1.00;;;;;;4974345;28;20955;-74
2022/11/03 14:47:01;;;;;;;0.60;0.10;;;14.20;1.00;;;;;;4974849;28;20999;-73
2022/11/03 14:49:29;;;;;;;0.60;0.10;;;14.20;1.00;;;;;;4969557;28;20497;-74
2022/11/03 14:51:58;;;;;;;0.60;0.10;;;;;;;;;;4975083;28;20493;-74
2022/11/03 14:54:28;;;;;;;0.60;0.10;;;14.10;1.00;;;;;;4974202;28;20462;-74
2022/11/03 14:56:56;;;;;;;0.60;0.10;;;14.10;1.00;;;;;;4974385;28;20838;-73
2022/11/03 14:59:24;;;;;;;0.60;0.10;;;14.10;1.00;;;;;;4974904;28;20514;-73
2022/11/03 15:01:53;;;;;;;0.60;0.10;;;14.10;1.00;;;;;;4973660;28;21188;-73
2022/11/03 15:04:22;;;;;;;0.60;0.10;;;14.20;1.00;;;;;;4974014;28;20956;-74
2022/11/03 15:06:50;;;;;;;0.60;0.10;;;14.10;1.00;;;;;;4967946;28;20489;-73
2022/11/03 15:09:18;;;;;;;1.63;1.53;;;14.10;1.00;;;;;;4967714;28;20509;-72
2022/11/03 15:11:48;;;;;;;0.60;0.10;;;;;;;;;;4974261;28;20505;-73
2022/11/03 15:14:15;;;;;;;0.60;0.10;;;14.10;1.00;;;;;;4979377;28;20454;-74
2022/11/03 15:16:44;;;;;;;0.60;0.10;;;14.10;1.00;;;;;;4981632;28;20450;-74
2022/11/03 15:19:12;;;;;;;0.60;0.10;;;14.10;1.00;;;;;;4978565;28;20536;-73
2022/11/03 15:21:40;;;;;;;0.60;0.10;;;14.10;1.00;;;;;;4978441;28;20536;-74
2022/11/03 15:24:08;;;;;;;0.60;0.10;;;14.10;1.00;;;;;;4975233;28;20862;-73
2022/11/03 15:26:57;;;;;;;0.60;0.10;;;14.00;1.00;;;;;;4976852;28;20493;-74
2022/11/03 15:29:25;;;;;;;0.60;0.10;;;14.00;1.00;;;;;;4976078;28;20841;-74
2022/11/03 15:31:53;;;;;;;0.60;0.10;;;14.00;1.00;;;;;;4976304;28;20461;-73
2022/11/03 15:34:21;;;;;;;0.60;0.10;;;14.00;1.00;;;;;;4973227;28;20458;-73
2022/11/03 15:36:48;;;;;;;0.60;0.10;;;14.00;1.00;;;;;;4972717;28;20473;-74
2022/11/03 15:39:17;;;;;;;0.60;0.10;;;;;;;;;;4972720;28;20446;-74
2022/11/03 15:41:44;;;;;;;0.60;0.10;;;14.00;1.00;;;;;;4972917;28;20505;-73
2022/11/03 15:44:14;;;;;;;0.60;0.10;;;13.90;1.00;;;;;;4972582;28;20513;-73
2022/11/03 15:46:41;;;;;;;0.60;0.10;;;13.90;1.00;;;;;;4973294;28;20442;-73
2022/11/03 15:49:09;;;;;;;0.60;0.10;;;13.90;1.00;;;;;;4972972;28;20957;-74
2022/11/03 15:51:37;;;;;;;0.60;0.10;;;13.90;1.00;;;;;;4973023;28;21165;-72
2022/11/03 15:54:05;;;;;;;0.60;0.10;;;13.90;1.00;;;;;;4972881;28;20521;-73
2022/11/03 15:56:32;;;;;;;0.60;0.10;;;13.80;1.00;;;;;;4971170;28;20454;-73
2022/11/03 15:59:00;;;;;;;0.60;0.10;;;13.80;1.00;;;;;;4969253;28;20481;-74
2022/11/03 16:01:30;;;;;;;0.60;0.10;;;13.80;1.00;;;;;;4956738;28;20451;-74
2022/11/03 16:03:58;;;;;;;0.60;0.10;;;13.80;1.00;;;;;;4963206;28;20961;-74
2022/11/03 16:06:26;;;;;;;0.60;0.10;;;13.80;1.00;;;;;;4961426;28;20486;-73
2022/11/03 16:09:14;;;;;;;0.60;0.10;;;13.80;1.00;;;;;;4973980;28;20520;-73
2022/11/03 16:11:42;;;;;;;0.60;0.10;;;13.80;1.00;;;;;;4960804;28;20452;-70
2022/11/03 16:14:09;;;;;;;0.60;0.13;;;13.80;1.00;;;;;;4958559;28;20471;-73
2022/11/03 16:16:38;;;;;;;0.60;0.10;;;13.70;1.00;;;;;;4971373;28;20960;-73
2022/11/03 16:19:06;;;;;;;0.60;0.10;;;13.80;1.00;;;;;;4970306;28;20517;-74
2022/11/03 16:21:34;;;;;;;0.60;0.10;;;13.70;1.00;;;;;;4971473;28;20533;-72
2022/11/03 16:24:02;;;;;;;0.60;0.10;;;13.70;1.00;;;;;;4966680;28;20548;-72
2022/11/03 16:26:30;;;;;;;0.60;0.10;;;13.70;1.00;;;;;;4960415;28;20513;-73
2022/11/03 16:28:58;;;;;;;0.60;0.10;;;;;;;;;;4971552;28;20975;-72
2022/11/03 16:31:27;;;;;;;0.60;0.10;;;;;;;;;;4973304;28;20864;-71
2022/11/03 16:33:56;;;;;;;0.60;0.10;;;13.60;1.00;;;;;;4969545;28;20449;-74
2022/11/03 16:36:24;;;;;;;0.60;0.10;;;13.70;1.00;;;;;;4954160;29;20509;-72
2022/11/03 16:38:52;;;;;;;0.60;0.10;;;13.70;1.00;;;;;;4954960;29;20472;-71
2022/11/03 16:41:20;;;;;;;0.60;0.10;;;13.70;1.00;;;;;;4954159;29;20455;-71
2022/11/03 16:43:48;;;;;;;0.60;0.10;;;13.70;1.00;;;;;;4955441;28;20546;-71
2022/11/03 16:46:16;;;;;;;0.60;0.10;;;;;;;;;;4990452;28;20449;-71
2022/11/03 16:48:44;;;;;;;0.60;0.10;;;13.60;1.00;;;;;;4991810;28;20472;-70
2022/11/03 16:51:13;;;;;;;0.60;0.10;;;13.60;1.00;;;;;;4990351;28;20599;-73
2022/11/03 16:53:41;;;;;;;0.60;0.10;;;13.60;1.00;;;;;;4990690;28;20805;-70
2022/11/03 16:56:09;;;;;;;0.60;0.10;;;13.60;1.00;;;;;;4971833;28;20486;-71
2022/11/03 16:58:36;;;;;;;0.60;0.10;;;13.60;1.00;;;;;;4972293;28;20981;-71
2022/11/03 17:01:04;;;;;;;0.60;0.10;;;13.60;1.00;;;;;;4973162;28;20516;-72
2022/11/03 17:03:32;;;;;;;0.60;0.10;;;13.60;1.00;;;;;;4972824;28;20488;-72
2022/11/03 17:06:00;;;;;;;0.53;0.10;;;13.60;1.00;;;;;;4972886;28;20477;-74
2022/11/03 17:08:29;;;;;;;0.53;0.10;;;;;;;;;;4972492;28;20528;-72
2022/11/03 17:11:34;;;;;;;0.60;0.10;;;13.60;1.00;;;;;;4962613;28;20509;-71
2022/11/03 17:14:03;;;;;;;0.60;0.10;;;13.60;1.00;;;;;;4956204;28;21186;-71
2022/11/03 17:16:31;;;;;;;0.60;0.10;;;13.50;1.00;;;;;;4973019;28;20821;-72
2022/11/03 17:18:58;;;;;;;0.60;0.10;;;13.50;1.00;;;;;;4972783;28;20889;-73
2022/11/03 17:21:27;;;;;;;0.60;0.10;;;13.50;1.00;;;;;;4972692;28;20445;-74
2022/11/03 17:23:57;;;;;;;0.60;0.10;;;13.50;1.00;;;;;;4971612;28;20501;-75
2022/11/03 17:26:28;;;;;;;0.60;0.10;;;;;;;;;;4972031;28;20453;-69
2022/11/03 17:28:57;;;;;;;0.60;0.10;;;13.50;1.00;;;;;;4968608;28;20483;-71
2022/11/03 17:31:25;;;;;;;0.60;0.10;;;;;;;;;;4965228;28;20439;-72
2022/11/03 17:33:56;;;;;;;0.60;0.10;;;;;;;;;;4965535;28;20956;-71